createdAt,value
2019-06-07T00:01:58.005Z,11.90
2019-06-07T00:04:27.793Z,11.90
2019-06-07T00:06:57.497Z,11.90
2019-06-07T00:09:27.294Z,11.80
2019-06-07T00:11:57.015Z,11.80
2019-06-07T00:14:27.702Z,11.90
2019-06-07T00:16:57.422Z,11.90
2019-06-07T00:19:27.142Z,11.90
2019-06-07T00:24:28.327Z,11.80
2019-06-07T00:26:59.205Z,11.70
2019-06-07T00:29:30.218Z,11.70
2019-06-07T00:31:59.895Z,11.60
2019-06-07T00:34:30.599Z,11.60
2019-06-07T00:37:00.431Z,11.50
2019-06-07T00:39:30.273Z,11.40
2019-06-07T00:42:00.058Z,11.40
2019-06-07T00:44:29.916Z,11.40
2019-06-07T00:46:59.619Z,11.40
2019-06-07T00:49:40.468Z,11.40
2019-06-07T00:52:00.868Z,11.30
2019-06-07T00:54:30.708Z,11.30
2019-06-07T00:57:00.480Z,11.30
2019-06-07T00:59:30.250Z,11.30
2019-06-07T01:02:00.102Z,11.30
2019-06-07T01:04:29.817Z,11.30
2019-06-07T01:06:59.582Z,11.30
2019-06-07T01:09:30.249Z,11.30
2019-06-07T01:12:00.135Z,11.30
2019-06-07T01:14:29.998Z,11.30
2019-06-07T01:17:22.000Z,11.30
2019-06-07T01:19:31.391Z,11.30
2019-06-07T01:22:01.099Z,11.30
2019-06-07T01:24:30.794Z,11.30
2019-06-07T01:27:00.591Z,11.40
2019-06-07T01:29:31.168Z,11.40
2019-06-07T01:32:01.161Z,11.40
2019-06-07T01:34:30.881Z,11.50
2019-06-07T01:37:00.693Z,11.50
2019-06-07T01:39:31.791Z,11.60
2019-06-07T01:42:02.051Z,11.60
2019-06-07T01:44:31.945Z,11.60
2019-06-07T01:47:01.739Z,11.70
2019-06-07T01:49:31.498Z,11.80
2019-06-07T01:52:01.290Z,11.90
2019-06-07T01:57:02.609Z,11.90
2019-06-07T01:59:32.521Z,11.90
2019-06-07T02:02:02.297Z,11.90
2019-06-07T02:04:33.473Z,11.80
2019-06-07T02:07:03.478Z,11.90
2019-06-07T02:09:33.345Z,11.90
2019-06-07T02:12:03.135Z,11.90
2019-06-07T02:14:33.772Z,11.90
2019-06-07T02:17:03.903Z,11.90
2019-06-07T02:19:33.888Z,11.90
2019-06-07T02:22:03.683Z,11.90
2019-06-07T02:24:36.043Z,12.00
2019-06-07T02:27:06.227Z,12.00
2019-06-07T02:29:36.390Z,12.00
2019-06-07T02:32:06.316Z,12.00
2019-06-07T02:34:39.529Z,12.10
2019-06-07T02:37:07.540Z,12.10
2019-06-07T02:39:40.624Z,12.10
2019-06-07T02:42:08.863Z,12.10
2019-06-07T02:44:40.455Z,12.10
2019-06-07T02:47:10.511Z,12.10
2019-06-07T02:49:42.030Z,12.10
2019-06-07T02:52:11.766Z,12.10
2019-06-07T02:54:41.599Z,12.10
2019-06-07T02:57:11.554Z,12.10
2019-06-07T03:00:05.504Z,12.20
2019-06-07T03:02:12.728Z,12.20
2019-06-07T03:04:44.981Z,12.20
2019-06-07T03:07:16.394Z,12.20
2019-06-07T03:09:48.187Z,12.20
2019-06-07T03:12:20.243Z,12.10
2019-06-07T03:14:51.010Z,12.10
2019-06-07T03:17:48.019Z,12.10
2019-06-07T03:20:18.978Z,12.10
2019-06-07T03:22:50.874Z,12.00
2019-06-07T03:25:20.750Z,12.10
2019-06-07T03:27:50.911Z,12.10
2019-06-07T03:30:38.655Z,12.10
2019-06-07T03:32:52.438Z,12.10
2019-06-07T03:35:22.198Z,12.10
2019-06-07T03:37:53.795Z,12.10
2019-06-07T03:40:23.547Z,12.10
2019-06-07T03:42:53.268Z,12.20
2019-06-07T03:45:23.025Z,12.20
2019-06-07T03:47:52.742Z,12.20
2019-06-07T03:50:22.594Z,12.30
2019-06-07T03:52:53.300Z,12.30
2019-06-07T03:55:23.371Z,12.50
2019-06-07T04:00:24.649Z,12.50
2019-06-07T04:02:54.416Z,12.50
2019-06-07T04:05:24.440Z,12.50
2019-06-07T04:07:54.221Z,12.50
2019-06-07T04:10:44.728Z,12.50
2019-06-07T04:12:55.588Z,12.50
2019-06-07T04:15:25.462Z,12.50
2019-06-07T04:18:01.685Z,12.40
2019-06-07T04:20:29.179Z,12.50
2019-06-07T04:22:58.318Z,12.50
2019-06-07T04:25:28.988Z,12.50
2019-06-07T04:27:59.617Z,12.50
2019-06-07T04:30:42.002Z,12.60
2019-06-07T04:33:12.654Z,12.60
2019-06-07T04:35:43.532Z,12.70
2019-06-07T04:38:14.155Z,12.80
2019-06-07T04:40:45.206Z,12.90
2019-06-07T04:43:16.040Z,13.00
2019-06-07T04:45:51.015Z,13.20
2019-06-07T04:48:21.102Z,13.40
2019-06-07T04:50:52.306Z,13.50
2019-06-07T04:53:22.039Z,13.70
2019-06-07T04:55:51.839Z,14.00
2019-06-07T04:58:21.738Z,14.30
2019-06-07T05:00:56.489Z,14.50
2019-06-07T05:03:23.031Z,14.70
2019-06-07T05:05:52.877Z,14.80
2019-06-07T05:08:27.903Z,14.90
2019-06-07T05:10:54.051Z,15.10
2019-06-07T05:13:23.742Z,15.20
2019-06-07T05:15:53.623Z,15.30
2019-06-07T05:18:23.467Z,15.40
2019-06-07T05:20:53.203Z,15.50
2019-06-07T05:24:02.549Z,15.60
2019-06-07T05:25:54.432Z,15.70
2019-06-07T05:28:25.106Z,15.80
2019-06-07T05:31:04.774Z,15.90
2019-06-07T05:33:27.751Z,15.90
2019-06-07T05:35:57.559Z,16.00
2019-06-07T05:38:27.288Z,16.10
2019-06-07T05:40:57.061Z,16.20
2019-06-07T05:43:28.659Z,16.40
2019-06-07T05:45:58.487Z,16.50
2019-06-07T05:48:28.687Z,16.60
2019-06-07T05:50:58.527Z,16.70
2019-06-07T05:53:28.352Z,16.70
2019-06-07T05:55:58.115Z,16.70
2019-06-07T05:58:28.006Z,16.70
2019-06-07T06:01:40.792Z,16.60
2019-06-07T06:03:29.331Z,16.70
2019-06-07T06:05:59.125Z,16.90
2019-06-07T06:08:28.847Z,17.20
2019-06-07T06:10:58.559Z,17.40
2019-06-07T06:13:28.366Z,17.60
2019-06-07T06:16:02.191Z,17.60
2019-06-07T06:18:29.552Z,17.60
2019-06-07T06:21:16.218Z,17.80
2019-06-07T06:23:30.808Z,18.00
2019-06-07T06:26:00.535Z,18.10
2019-06-07T06:28:30.307Z,18.20
2019-06-07T06:31:00.029Z,18.10
2019-06-07T06:33:34.410Z,18.00
2019-06-07T06:36:01.102Z,17.80
2019-06-07T06:38:31.449Z,17.60
2019-06-07T06:41:15.463Z,17.60
2019-06-07T06:43:32.851Z,17.80
2019-06-07T06:46:02.891Z,18.10
2019-06-07T06:48:32.766Z,18.50
2019-06-07T06:51:02.670Z,19.10
2019-06-07T06:53:32.462Z,19.80
2019-06-07T06:56:02.525Z,20.50
2019-06-07T06:59:18.518Z,21.10
2019-06-07T07:01:06.775Z,21.30
2019-06-07T07:03:57.367Z,21.60
2019-06-07T07:06:25.221Z,21.80
2019-06-07T07:08:43.656Z,22.20
2019-06-07T07:11:13.754Z,22.60
2019-06-07T07:13:45.332Z,23.30
2019-06-07T07:16:14.941Z,23.90
2019-06-07T07:18:46.921Z,24.40
2019-06-07T07:21:16.199Z,24.60
2019-06-07T07:24:08.265Z,24.10
2019-06-07T07:26:17.682Z,23.80
2019-06-07T07:28:51.764Z,23.40
2019-06-07T07:31:18.835Z,23.00
2019-06-07T07:36:38.197Z,22.50
2019-06-07T07:39:00.524Z,22.20
2019-06-07T07:41:22.860Z,21.90
2019-06-07T07:44:04.325Z,21.90
2019-06-07T07:46:29.602Z,21.80
2019-06-07T07:48:56.583Z,21.70
2019-06-07T07:51:27.536Z,21.70
2019-06-07T07:54:09.738Z,21.60
2019-06-07T07:56:28.747Z,21.60
2019-06-07T07:59:01.818Z,21.50
2019-06-07T08:01:30.372Z,21.20
2019-06-07T08:04:00.143Z,20.80
2019-06-07T08:06:29.935Z,20.50
2019-06-07T08:08:59.730Z,20.40
2019-06-07T08:11:29.508Z,20.40
2019-06-07T08:13:59.215Z,20.40
2019-06-07T08:16:28.939Z,20.40
2019-06-07T08:19:04.093Z,20.50
2019-06-07T08:21:30.136Z,20.70
2019-06-07T08:24:04.108Z,20.90
2019-06-07T08:26:31.668Z,20.80
2019-06-07T08:29:02.930Z,20.80
2019-06-07T08:31:33.275Z,20.70
2019-06-07T08:34:03.405Z,20.50
2019-06-07T08:36:42.109Z,20.40
2019-06-07T08:39:07.818Z,20.30
2019-06-07T08:41:53.393Z,20.10
2019-06-07T08:44:23.411Z,20.10
2019-06-07T08:46:47.205Z,20.20
2019-06-07T08:49:16.906Z,20.40
2019-06-07T08:51:46.619Z,20.60
2019-06-07T08:54:22.865Z,21.00
2019-06-07T08:56:47.786Z,21.10
2019-06-07T08:59:17.478Z,21.10
2019-06-07T09:01:47.178Z,21.00
2019-06-07T09:04:16.906Z,21.00
2019-06-07T09:07:14.749Z,21.00
2019-06-07T09:09:20.153Z,20.90
2019-06-07T09:11:49.847Z,20.80
2019-06-07T09:14:19.604Z,20.80
2019-06-07T09:16:55.348Z,20.80
2019-06-07T09:19:25.400Z,21.00
2019-06-07T09:21:57.461Z,21.20
2019-06-07T09:24:27.656Z,21.40
2019-06-07T09:26:58.328Z,21.50
2019-06-07T09:29:29.479Z,21.70
2019-06-07T09:32:00.583Z,21.60
2019-06-07T09:34:30.811Z,21.50
2019-06-07T09:37:10.841Z,21.30
2019-06-07T09:39:32.731Z,21.30
2019-06-07T09:42:08.393Z,21.30
2019-06-07T09:44:34.026Z,21.20
2019-06-07T09:47:22.427Z,21.20
2019-06-07T09:49:36.370Z,21.10
2019-06-07T09:52:10.420Z,21.00
2019-06-07T09:57:16.623Z,20.90
2019-06-07T09:59:40.439Z,21.00
2019-06-07T10:02:13.799Z,21.10
2019-06-07T10:04:42.098Z,21.20
2019-06-07T10:07:30.225Z,21.10
2019-06-07T10:10:09.864Z,21.10
2019-06-07T10:12:14.958Z,21.10
2019-06-07T10:14:45.322Z,21.10
2019-06-07T10:17:15.497Z,21.20
2019-06-07T10:19:45.308Z,21.30
2019-06-07T10:22:15.022Z,21.30
2019-06-07T10:24:47.050Z,21.30
2019-06-07T10:27:16.887Z,21.30
2019-06-07T10:29:49.009Z,21.10
2019-06-07T10:32:18.779Z,21.00
2019-06-07T10:34:48.750Z,20.90
2019-06-07T10:37:18.494Z,21.00
2019-06-07T10:39:49.353Z,21.10
2019-06-07T10:42:19.308Z,21.10
2019-06-07T10:44:49.442Z,21.30
2019-06-07T10:47:19.143Z,21.70
2019-06-07T10:49:48.850Z,22.30
2019-06-07T10:52:18.893Z,22.90
2019-06-07T10:54:48.700Z,23.40
2019-06-07T10:57:18.408Z,23.50
2019-06-07T10:59:48.198Z,23.50
2019-06-07T11:02:18.063Z,23.60
2019-06-07T11:04:47.818Z,23.40
2019-06-07T11:07:17.667Z,23.20
2019-06-07T11:10:06.314Z,22.80
2019-06-07T11:12:26.412Z,22.50
2019-06-07T11:14:56.199Z,22.20
2019-06-07T11:17:26.238Z,22.10
2019-06-07T11:19:56.082Z,22.00
2019-06-07T11:22:25.773Z,22.00
2019-06-07T11:24:55.558Z,22.00
2019-06-07T11:27:25.363Z,21.90
2019-06-07T11:29:55.200Z,22.00
2019-06-07T11:32:25.014Z,22.10
2019-06-07T11:34:54.790Z,22.00
2019-06-07T11:37:24.603Z,22.00
2019-06-07T11:39:54.433Z,22.10
2019-06-07T11:42:24.217Z,22.20
2019-06-07T11:44:57.131Z,22.30
2019-06-07T11:47:25.420Z,22.40
2019-06-07T11:49:55.200Z,22.50
2019-06-07T11:52:25.058Z,22.60
2019-06-07T11:54:54.814Z,22.80
2019-06-07T11:57:24.565Z,22.90
2019-06-07T11:59:54.426Z,23.00
2019-06-07T12:02:24.156Z,23.10
2019-06-07T12:04:53.896Z,23.10
2019-06-07T12:07:23.610Z,23.20
2019-06-07T12:10:02.371Z,23.40
2019-06-07T12:12:33.354Z,23.60
2019-06-07T12:15:03.238Z,23.90
2019-06-07T12:17:34.278Z,24.00
2019-06-07T12:20:08.406Z,24.20
2019-06-07T12:22:35.944Z,24.40
2019-06-07T12:25:06.090Z,24.60
2019-06-07T12:27:36.044Z,24.60
2019-06-07T12:30:11.168Z,24.60
2019-06-07T12:32:40.067Z,24.40
2019-06-07T12:35:11.481Z,24.60
2019-06-07T12:37:44.199Z,24.60
2019-06-07T12:40:22.960Z,24.80
2019-06-07T12:42:44.843Z,24.90
2019-06-07T12:45:36.688Z,25.00
2019-06-07T12:47:47.299Z,25.00
2019-06-07T12:50:17.520Z,25.10
2019-06-07T12:52:47.307Z,25.30
2019-06-07T12:55:18.189Z,25.30
2019-06-07T12:57:48.879Z,25.30
2019-06-07T13:00:20.218Z,25.40
2019-06-07T13:02:50.070Z,25.30
2019-06-07T13:05:19.990Z,25.00
2019-06-07T13:07:49.871Z,24.60
2019-06-07T13:10:20.137Z,24.40
2019-06-07T13:12:50.165Z,24.50
2019-06-07T13:15:22.007Z,24.90
2019-06-07T13:17:51.602Z,25.20
2019-06-07T13:20:24.603Z,25.40
2019-06-07T13:22:54.603Z,25.50
2019-06-07T13:25:41.131Z,25.60
2019-06-07T13:27:56.482Z,25.80
2019-06-07T13:30:26.604Z,26.00
2019-06-07T13:32:56.435Z,25.90
2019-06-07T13:35:29.410Z,25.70
2019-06-07T13:37:59.751Z,25.50
2019-06-07T13:40:30.242Z,25.60
2019-06-07T13:42:59.937Z,25.90
2019-06-07T13:45:29.700Z,25.90
2019-06-07T13:47:59.479Z,26.00
2019-06-07T13:50:29.595Z,25.80
2019-06-07T13:52:59.422Z,25.70
2019-06-07T13:55:30.246Z,25.50
2019-06-07T13:58:06.692Z,25.40
2019-06-07T14:00:36.467Z,25.40
2019-06-07T14:03:06.315Z,25.20
2019-06-07T14:05:36.072Z,25.20
2019-06-07T14:08:05.871Z,25.40
2019-06-07T14:10:35.645Z,25.60
2019-06-07T14:13:05.522Z,25.60
2019-06-07T14:15:35.483Z,25.40
2019-06-07T14:18:05.438Z,25.00
2019-06-07T14:20:35.215Z,24.60
2019-06-07T14:23:05.096Z,24.20
2019-06-07T14:25:34.933Z,23.90
2019-06-07T14:28:10.899Z,23.60
2019-06-07T14:30:36.222Z,23.40
2019-06-07T14:33:06.027Z,23.20
2019-06-07T14:35:35.721Z,23.00
2019-06-07T14:38:05.548Z,22.90
2019-06-07T14:40:35.328Z,22.70
2019-06-07T14:43:05.176Z,22.50
2019-06-07T14:45:35.023Z,22.30
2019-06-07T14:48:04.879Z,22.00
2019-06-07T14:50:34.651Z,21.90
2019-06-07T14:53:04.487Z,21.70
2019-06-07T14:55:35.075Z,21.40
2019-06-07T14:58:05.057Z,21.10
2019-06-07T15:00:42.512Z,20.80
2019-06-07T15:03:12.426Z,20.60
2019-06-07T15:05:42.274Z,20.50
2019-06-07T15:08:11.975Z,20.30
2019-06-07T15:10:44.355Z,20.10
2019-06-07T15:13:14.056Z,20.00
2019-06-07T15:15:43.874Z,19.90
2019-06-07T15:18:14.617Z,19.80
2019-06-07T15:20:44.323Z,19.70
2019-06-07T15:23:14.043Z,19.60
2019-06-07T15:25:43.803Z,19.50
2019-06-07T15:28:13.653Z,19.40
2019-06-07T15:30:43.432Z,19.30
2019-06-07T15:33:13.215Z,19.20
2019-06-07T15:35:42.919Z,19.00
2019-06-07T15:38:12.627Z,18.90
2019-06-07T15:40:42.341Z,18.80
2019-06-07T15:43:13.121Z,18.70
2019-06-07T15:45:42.814Z,18.70
2019-06-07T15:48:12.580Z,18.60
2019-06-07T15:50:42.366Z,18.60
2019-06-07T15:53:12.071Z,18.60
2019-06-07T15:55:45.505Z,18.50
2019-06-07T15:58:13.333Z,18.60
2019-06-07T16:00:43.098Z,18.50
2019-06-07T16:03:12.883Z,18.50
2019-06-07T16:05:43.814Z,18.50
2019-06-07T16:08:13.650Z,18.50
2019-06-07T16:10:43.418Z,18.50
2019-06-07T16:13:13.107Z,18.50
2019-06-07T16:15:43.232Z,18.30
2019-06-07T16:18:14.161Z,18.10
2019-06-07T16:20:43.978Z,17.90
2019-06-07T16:23:13.711Z,17.60
2019-06-07T16:25:44.360Z,17.30
2019-06-07T16:28:14.276Z,16.90
2019-06-07T16:30:45.051Z,16.80
2019-06-07T16:33:14.756Z,16.60
2019-06-07T16:35:45.544Z,16.60
2019-06-07T16:38:15.448Z,16.60
2019-06-07T16:40:45.220Z,16.80
2019-06-07T16:43:17.993Z,16.80
2019-06-07T16:45:46.398Z,16.90
2019-06-07T16:48:16.163Z,16.90
2019-06-07T16:50:45.959Z,16.80
2019-06-07T16:53:15.795Z,16.90
2019-06-07T16:55:45.592Z,16.90
2019-06-07T16:58:15.267Z,17.00
2019-06-07T17:00:46.254Z,17.10
2019-06-07T17:03:16.310Z,17.30
2019-06-07T17:05:48.929Z,17.60
2019-06-07T17:08:17.704Z,17.70
2019-06-07T17:10:49.134Z,17.80
2019-06-07T17:13:32.457Z,17.80
2019-06-07T17:15:50.347Z,17.70
2019-06-07T17:18:20.181Z,17.70
2019-06-07T17:20:50.059Z,17.60
2019-06-07T17:23:19.736Z,17.40
2019-06-07T17:25:49.936Z,17.30
2019-06-07T17:28:19.791Z,17.20
2019-06-07T17:30:50.328Z,17.20
2019-06-07T17:33:20.282Z,17.00
2019-06-07T17:35:50.613Z,17.00
2019-06-07T17:38:21.546Z,16.90
2019-06-07T17:40:51.362Z,16.70
2019-06-07T17:43:21.082Z,16.50
2019-06-07T17:45:51.850Z,16.40
2019-06-07T17:48:24.048Z,16.10
2019-06-07T17:50:53.936Z,16.00
2019-06-07T17:53:23.647Z,15.90
2019-06-07T17:55:56.264Z,15.80
2019-06-07T17:58:25.983Z,15.80
2019-06-07T18:00:55.757Z,15.80
2019-06-07T18:03:25.744Z,15.80
2019-06-07T18:05:55.592Z,15.80
2019-06-07T18:08:25.653Z,15.70
2019-06-07T18:10:55.422Z,15.70
2019-06-07T18:13:25.304Z,15.70
2019-06-07T18:15:58.953Z,15.70
2019-06-07T18:18:26.600Z,15.70
2019-06-07T18:20:56.426Z,15.70
2019-06-07T18:23:26.272Z,15.70
2019-06-07T18:25:56.063Z,15.60
2019-06-07T18:28:25.830Z,15.60
2019-06-07T18:30:55.623Z,15.60
2019-06-07T18:33:25.395Z,15.60
2019-06-07T18:35:56.308Z,15.60
2019-06-07T18:38:26.013Z,15.60
2019-06-07T18:40:55.816Z,15.70
2019-06-07T18:43:25.589Z,15.90
2019-06-07T18:45:55.940Z,16.00
2019-06-07T18:48:27.165Z,15.90
2019-06-07T18:50:57.207Z,15.90
2019-06-07T18:53:26.958Z,15.70
2019-06-07T18:55:58.059Z,15.70
2019-06-07T18:58:27.919Z,15.50
2019-06-07T19:00:57.912Z,15.40
2019-06-07T19:03:27.692Z,15.40
2019-06-07T19:05:58.325Z,15.40
2019-06-07T19:08:28.244Z,15.30
2019-06-07T19:10:59.002Z,15.30
2019-06-07T19:13:28.969Z,15.10
2019-06-07T19:15:59.689Z,15.00
2019-06-07T19:18:29.523Z,14.80
2019-06-07T19:21:00.678Z,14.70
2019-06-07T19:23:30.558Z,14.70
2019-06-07T19:26:00.671Z,14.60
2019-06-07T19:28:30.643Z,14.50
2019-06-07T19:31:01.295Z,14.50
2019-06-07T19:33:31.940Z,14.30
2019-06-07T19:36:01.947Z,14.20
2019-06-07T19:38:32.805Z,14.20
2019-06-07T19:41:18.945Z,14.20
2019-06-07T19:43:33.987Z,14.20
2019-06-07T19:46:03.668Z,14.20
2019-06-07T19:48:34.419Z,14.10
2019-06-07T19:51:04.190Z,14.10
2019-06-07T19:53:33.890Z,14.10
2019-06-07T19:56:03.675Z,14.00
2019-06-07T19:58:33.397Z,14.00
2019-06-07T20:01:04.759Z,13.90
2019-06-07T20:03:34.666Z,13.90
2019-06-07T20:06:04.560Z,13.90
2019-06-07T20:08:34.431Z,13.90
2019-06-07T20:11:04.857Z,13.80
2019-06-07T20:13:34.858Z,13.80
2019-06-07T20:16:07.143Z,13.70
2019-06-07T20:18:36.834Z,13.70
2019-06-07T20:21:06.851Z,13.60
2019-06-07T20:23:36.705Z,13.60
2019-06-07T20:26:06.817Z,13.60
2019-06-07T20:28:37.056Z,13.60
2019-06-07T20:31:08.099Z,13.60
2019-06-07T20:33:38.312Z,13.60
2019-06-07T20:36:09.168Z,13.60
2019-06-07T20:38:38.965Z,13.50
2019-06-07T20:41:08.777Z,13.50
2019-06-07T20:43:38.552Z,13.40
2019-06-07T20:46:08.310Z,13.40
2019-06-07T20:48:38.146Z,13.30
2019-06-07T20:51:08.707Z,13.40
2019-06-07T20:53:38.696Z,13.40
2019-06-07T20:56:09.180Z,13.40
2019-06-07T20:58:39.156Z,13.40
2019-06-07T21:01:09.074Z,13.30
2019-06-07T21:03:38.861Z,13.30
2019-06-07T21:06:09.862Z,13.30
2019-06-07T21:08:39.785Z,13.30
2019-06-07T21:11:09.891Z,13.30
2019-06-07T21:13:39.748Z,13.30
2019-06-07T21:16:10.426Z,13.30
2019-06-07T21:18:40.449Z,13.30
2019-06-07T21:21:10.629Z,13.30
2019-06-07T21:23:40.582Z,13.30
2019-06-07T21:26:11.068Z,13.40
2019-06-07T21:28:42.047Z,13.40
2019-06-07T21:31:12.469Z,13.50
2019-06-07T21:33:42.275Z,13.50
2019-06-07T21:36:11.961Z,13.60
2019-06-07T21:38:41.723Z,13.70
2019-06-07T21:41:12.633Z,13.70
2019-06-07T21:43:42.395Z,13.80
2019-06-07T21:46:19.988Z,13.80
2019-06-07T21:48:43.632Z,13.80
2019-06-07T21:51:13.318Z,13.80
2019-06-07T21:53:43.371Z,13.70
2019-06-07T21:56:13.378Z,13.80
2019-06-07T21:58:43.405Z,13.70
2019-06-07T22:01:22.047Z,13.70
2019-06-07T22:03:52.570Z,13.70
2019-06-07T22:06:22.329Z,13.70
2019-06-07T22:08:52.421Z,13.60
2019-06-07T22:11:22.227Z,13.60
2019-06-07T22:13:52.004Z,13.60
2019-06-07T22:16:29.033Z,13.60
2019-06-07T22:18:53.269Z,13.70
2019-06-07T22:21:23.024Z,13.90
2019-06-07T22:23:52.735Z,14.00
2019-06-07T22:26:22.442Z,14.00
2019-06-07T22:28:52.204Z,14.00
2019-06-07T22:31:21.922Z,14.00
2019-06-07T22:33:51.701Z,14.00
2019-06-07T22:36:21.571Z,14.10
2019-06-07T22:38:51.279Z,14.20
2019-06-07T22:41:20.985Z,14.30
2019-06-07T22:43:50.700Z,14.30
2019-06-07T22:46:35.956Z,14.30
2019-06-07T22:48:51.991Z,14.40
2019-06-07T22:51:21.734Z,14.50
2019-06-07T22:53:51.434Z,14.50
2019-06-07T22:56:26.823Z,14.60
2019-06-07T22:58:56.572Z,14.70
2019-06-07T23:01:26.367Z,14.70
2019-06-07T23:03:57.223Z,14.70
2019-06-07T23:06:27.036Z,14.70
2019-06-07T23:08:56.769Z,14.70
2019-06-07T23:11:26.524Z,14.80
2019-06-07T23:13:56.332Z,14.80
2019-06-07T23:16:26.216Z,14.80
2019-06-07T23:18:55.959Z,14.80
2019-06-07T23:21:25.771Z,14.70
2019-06-07T23:23:55.475Z,14.60
2019-06-07T23:26:25.268Z,14.60
2019-06-07T23:28:54.967Z,14.60
2019-06-07T23:31:24.684Z,14.50
2019-06-07T23:33:54.370Z,14.60
2019-06-07T23:36:24.076Z,14.60
2019-06-07T23:38:53.996Z,14.60
2019-06-07T23:41:23.695Z,14.70
2019-06-07T23:43:53.470Z,14.70
2019-06-07T23:46:23.177Z,14.80
2019-06-07T23:48:53.847Z,14.80
2019-06-07T23:51:23.552Z,14.70
2019-06-07T23:53:53.360Z,14.60
2019-06-07T23:56:23.055Z,14.50
2019-06-07T23:58:52.868Z,14.40
